Time;durP1;ratioP1;P1;durP2;ratioP2;P2;SDS_P1;SDS_P2;PMS_P1;PMS_P2;Temp;Humidity;BMP_temperature;BMP_pressure;BME280_temperature;BME280_humidity;BME280_pressure;Samples;Min_cycle;Max_cycle;Signal;HPM_P1;HPM_P2
2021/12/13 00:01:05;;;;;;;60.17;19.45;;;10.10;97.40;;;;;;4887708;29;20080;-68
2021/12/13 00:03:53;;;;;;;59.78;19.00;;;10.20;97.50;;;;;;4884537;29;20059;-68
2021/12/13 00:06:27;;;;;;;63.28;19.23;;;10.20;97.40;;;;;;4886778;29;20254;-68
2021/12/13 00:08:57;;;;;;;57.45;19.38;;;10.10;97.40;;;;;;4875820;29;20075;-68
2021/12/13 00:11:27;;;;;;;56.10;16.65;;;10.20;97.40;;;;;;4889908;29;20048;-69
2021/12/13 00:14:00;;;;;;;57.53;19.85;;;10.20;97.40;;;;;;4892680;29;20060;-68
2021/12/13 00:16:33;;;;;;;63.80;19.67;;;10.10;97.40;;;;;;4891278;29;20139;-69
2021/12/13 00:19:04;;;;;;;66.30;20.65;;;10.10;97.40;;;;;;4887255;29;20046;-68
2021/12/13 00:21:40;;;;;;;77.72;22.08;;;10.10;97.40;;;;;;4898432;29;20108;-68
2021/12/13 00:24:14;;;;;;;58.55;19.20;;;10.10;97.40;;;;;;4884592;29;20064;-69
2021/12/13 00:26:46;;;;;;;66.30;21.25;;;10.10;97.50;;;;;;4880761;29;20043;-68
2021/12/13 00:29:19;;;;;;;75.95;20.98;;;10.10;97.50;;;;;;4883697;29;20041;-69
2021/12/13 00:32:01;;;;;;;78.78;22.88;;;10.10;97.50;;;;;;4863626;29;20076;-69
2021/12/13 00:34:44;;;;;;;90.63;23.70;;;10.10;97.50;;;;;;4896739;29;20047;-69
2021/12/13 00:37:33;;;;;;;99.50;23.35;;;10.10;97.50;;;;;;4875666;29;20092;-69
2021/12/13 00:40:17;;;;;;;77.65;20.20;;;10.10;97.50;;;;;;4881418;29;20048;-70
2021/12/13 00:42:54;;;;;;;67.75;20.70;;;10.00;97.40;;;;;;4900054;29;20170;-68
2021/12/13 00:45:25;;;;;;;53.63;17.95;;;10.00;97.50;;;;;;4879456;29;20052;-69
2021/12/13 00:47:51;;;;;;;80.72;21.88;;;10.00;97.50;;;;;;4898552;29;20055;-69
2021/12/13 00:50:23;;;;;;;65.63;20.05;;;10.00;97.40;;;;;;4894459;29;20075;-69
2021/12/13 00:52:52;;;;;;;59.78;19.45;;;10.00;97.50;;;;;;4894161;29;20052;-69
2021/12/13 00:55:21;;;;;;;63.78;18.25;;;10.00;97.50;;;;;;4889520;29;20056;-69
2021/12/13 00:58:10;;;;;;;73.10;21.15;;;10.00;97.50;;;;;;4908176;29;20047;-69
2021/12/13 01:00:48;;;;;;;60.00;19.20;;;10.00;97.50;;;;;;4892715;29;20130;-69
2021/12/13 01:03:19;;;;;;;69.32;19.45;;;10.00;97.50;;;;;;4909633;29;20059;-69
2021/12/13 01:06:10;;;;;;;50.47;17.85;;;10.00;97.50;;;;;;4912735;29;20052;-68
2021/12/13 01:08:53;;;;;;;49.90;17.63;;;10.00;97.50;;;;;;4900353;29;20048;-69
2021/12/13 01:11:56;;;;;;;51.53;16.92;;;10.00;97.50;;;;;;4891651;29;20059;-69
2021/12/13 01:14:28;;;;;;;60.78;18.50;;;10.00;97.50;;;;;;4909242;29;20064;-68
2021/12/13 01:17:09;;;;;;;45.38;16.15;;;10.00;97.50;;;;;;4909296;29;20060;-68
2021/12/13 01:19:51;;;;;;;45.13;16.38;;;10.00;97.50;;;;;;4908395;29;20487;-68
2021/12/13 01:22:38;;;;;;;39.47;14.23;;;10.00;97.50;;;;;;4926101;29;20386;-68
2021/12/13 01:25:21;;;;;;;75.15;18.02;;;10.00;97.50;;;;;;4906208;29;20058;-68
2021/12/13 01:28:00;;;;;;;58.65;18.20;;;10.00;97.50;;;;;;4907852;29;20043;-68
2021/12/13 01:30:37;;;;;;;35.65;15.15;;;10.00;97.50;;;;;;4904334;29;20059;-68
2021/12/13 01:33:07;;;;;;;49.58;16.63;;;10.00;97.50;;;;;;4907392;29;20407;-68
2021/12/13 01:35:40;;;;;;;37.42;14.68;;;10.00;97.50;;;;;;4894751;29;20074;-68
2021/12/13 01:38:19;;;;;;;43.20;16.00;;;10.00;97.50;;;;;;4891698;29;20123;-69
2021/12/13 01:40:51;;;;;;;44.80;16.38;;;10.00;97.50;;;;;;4891589;29;20589;-68
2021/12/13 01:43:25;;;;;;;43.85;14.48;;;10.00;97.50;;;;;;4893539;29;20048;-68
2021/12/13 01:45:54;;;;;;;50.30;17.45;;;10.00;97.50;;;;;;4892295;29;20059;-68
2021/12/13 01:48:34;;;;;;;49.85;17.65;;;10.10;97.50;;;;;;4877268;29;20088;-68
2021/12/13 01:51:06;;;;;;;54.10;17.30;;;10.00;97.50;;;;;;4897325;29;20048;-68
2021/12/13 01:53:58;;;;;;;45.55;15.50;;;10.00;97.50;;;;;;4907764;29;20193;-68
2021/12/13 02:02:13;;;;;;;51.17;18.05;;;10.00;97.50;;;;;;4894862;29;20386;-68
2021/12/13 02:04:39;;;;;;;48.78;17.20;;;10.00;97.50;;;;;;4909928;29;20052;-68
2021/12/13 02:07:05;;;;;;;63.50;20.25;;;10.00;97.50;;;;;;4907940;29;20139;-68
2021/12/13 02:09:43;;;;;;;61.67;20.10;;;9.90;97.50;;;;;;4908024;29;20059;-68
2021/12/13 02:12:14;;;;;;;64.07;22.02;;;9.90;97.50;;;;;;4903517;29;20056;-68
2021/12/13 02:16:55;;;;;;;55.40;19.60;;;9.90;97.90;;;;;;4928308;29;20048;-68
2021/12/13 02:17:44;;;;;;;64.35;19.95;;;9.90;97.50;;;;;;4902806;29;20081;-68
2021/12/13 02:20:35;;;;;;;55.70;17.42;;;9.90;97.50;;;;;;4892938;29;20090;-68
2021/12/13 02:23:01;;;;;;;55.22;18.13;;;9.90;97.50;;;;;;4908162;29;20158;-68
2021/12/13 02:25:33;;;;;;;72.97;21.52;;;9.90;97.50;;;;;;4908169;29;20094;-68
2021/12/13 02:28:06;;;;;;;80.60;21.98;;;9.90;97.50;;;;;;4907744;29;20048;-69
2021/12/13 02:30:36;;;;;;;63.53;20.42;;;9.90;97.50;;;;;;4909459;29;20396;-68
2021/12/13 02:33:04;;;;;;;67.20;20.45;;;9.80;97.50;;;;;;4909582;29;20047;-68
2021/12/13 02:35:33;;;;;;;56.60;18.83;;;9.80;97.50;;;;;;4901769;29;20074;-68
2021/12/13 02:38:00;;;;;;;70.60;21.10;;;9.90;97.50;;;;;;4905835;29;20047;-68
2021/12/13 02:40:26;;;;;;;63.97;19.50;;;9.90;97.60;;;;;;4911370;29;20628;-69
2021/12/13 02:42:53;;;;;;;35.60;12.68;;;9.90;97.50;;;;;;4911228;29;20036;-69
2021/12/13 02:45:32;;;;;;;47.08;16.63;;;10.00;97.60;;;;;;4911126;29;20091;-68
2021/12/13 02:48:10;;;;;;;25.73;10.82;;;10.00;97.60;;;;;;4894825;29;20059;-68
2021/12/13 02:50:49;;;;;;;38.40;14.55;;;10.00;97.60;;;;;;4913443;29;20086;-68
2021/12/13 02:53:22;;;;;;;44.57;14.53;;;10.10;97.60;;;;;;4929498;29;20056;-68
2021/12/13 02:55:48;;;;;;;30.00;12.63;;;10.10;97.60;;;;;;4910235;29;20048;-68
2021/12/13 02:58:18;;;;;;;41.58;14.77;;;10.10;97.60;;;;;;4896186;29;20052;-68
2021/12/13 03:00:52;;;;;;;26.75;12.80;;;10.10;97.60;;;;;;4909924;29;20052;-69
2021/12/13 03:03:22;;;;;;;32.28;13.63;;;10.10;97.60;;;;;;4907679;29;20090;-68
2021/12/13 03:05:50;;;;;;;33.72;13.32;;;10.20;97.60;;;;;;4895509;29;20486;-68
2021/12/13 03:08:29;;;;;;;33.08;14.82;;;10.10;98.00;;;;;;4910164;29;20142;-68
2021/12/13 03:11:01;;;;;;;38.00;14.48;;;10.10;97.60;;;;;;4915336;29;20067;-68
2021/12/13 03:13:30;;;;;;;29.15;11.50;;;10.10;97.60;;;;;;4913182;29;20067;-68
2021/12/13 03:16:15;;;;;;;46.23;16.80;;;10.10;97.60;;;;;;4930022;29;20454;-68
2021/12/13 03:18:59;;;;;;;17.35;8.68;;;10.10;97.60;;;;;;4914102;29;20056;-68
2021/12/13 03:21:42;;;;;;;39.67;14.45;;;10.20;97.60;;;;;;4913192;29;20404;-68
2021/12/13 03:24:36;;;;;;;31.88;13.07;;;10.10;97.50;;;;;;4914410;29;20051;-69
2021/12/13 03:27:09;;;;;;;36.42;14.77;;;10.10;97.60;;;;;;4894399;29;20127;-68
2021/12/13 03:29:59;;;;;;;44.13;16.05;;;10.10;97.60;;;;;;4911009;29;20046;-69
2021/12/13 03:32:34;;;;;;;32.92;15.50;;;10.10;97.50;;;;;;4912645;29;20071;-68
2021/12/13 03:35:21;;;;;;;40.72;16.48;;;10.10;97.50;;;;;;4913409;29;20079;-68
2021/12/13 03:37:55;;;;;;;32.70;15.35;;;10.10;97.50;;;;;;4903270;29;20056;-68
2021/12/13 03:40:25;;;;;;;44.67;16.83;;;10.10;97.50;;;;;;4912046;29;20055;-68
2021/12/13 03:42:55;;;;;;;43.15;16.35;;;10.10;97.50;;;;;;4913076;29;20134;-68
2021/12/13 03:45:29;;;;;;;30.65;15.20;;;10.10;97.50;;;;;;4913994;29;20965;-68
2021/12/13 03:47:59;;;;;;;38.38;16.42;;;10.00;97.50;;;;;;4903237;29;20094;-68
2021/12/13 03:50:32;;;;;;;41.70;16.52;;;10.00;97.50;;;;;;4913652;29;20048;-68
2021/12/13 03:53:02;;;;;;;43.10;16.27;;;10.00;97.50;;;;;;4913424;29;20490;-68
2021/12/13 03:55:32;;;;;;;37.70;16.40;;;10.00;97.50;;;;;;4912900;29;20075;-68
2021/12/13 03:58:03;;;;;;;43.85;16.38;;;10.00;97.50;;;;;;4907427;29;20470;-69
2021/12/13 04:00:33;;;;;;;47.30;18.55;;;10.00;97.50;;;;;;4927552;29;20052;-68
2021/12/13 04:03:05;;;;;;;39.35;15.52;;;10.00;97.50;;;;;;4925155;29;20043;-68
2021/12/13 04:05:32;;;;;;;40.63;15.75;;;10.00;97.50;;;;;;4912386;29;20131;-68
2021/12/13 04:08:02;;;;;;;38.13;16.17;;;10.00;97.50;;;;;;4926095;29;20107;-68
2021/12/13 04:10:41;;;;;;;41.67;15.90;;;10.00;97.50;;;;;;4911413;29;20402;-68
2021/12/13 04:13:13;;;;;;;45.33;15.98;;;10.00;97.40;;;;;;4882323;29;20052;-68
2021/12/13 04:16:15;;;;;;;41.22;15.82;;;10.00;97.40;;;;;;4900320;29;20041;-68
2021/12/13 04:21:32;;;;;;;37.08;15.40;;;10.00;97.40;;;;;;4911875;29;20067;-68
2021/12/13 04:24:02;;;;;;;36.63;14.27;;;10.00;97.40;;;;;;4929441;29;20066;-68
2021/12/13 04:26:30;;;;;;;39.72;13.23;;;10.00;97.30;;;;;;4912122;29;20059;-68
2021/12/13 04:28:59;;;;;;;28.85;12.48;;;10.00;97.20;;;;;;4910140;29;20958;-68
2021/12/13 04:31:31;;;;;;;34.67;13.25;;;10.00;97.20;;;;;;4908602;29;20047;-68
2021/12/13 04:34:00;;;;;;;33.05;12.38;;;9.90;97.10;;;;;;4903037;29;20135;-69
2021/12/13 04:36:33;;;;;;;41.22;14.50;;;9.90;97.10;;;;;;4910119;29;20052;-68
2021/12/13 04:39:07;;;;;;;37.72;14.10;;;9.90;97.10;;;;;;4912011;29;20127;-68
2021/12/13 04:41:50;;;;;;;29.80;12.63;;;9.90;97.00;;;;;;4909007;29;20084;-68
2021/12/13 04:44:31;;;;;;;23.60;9.90;;;9.80;97.00;;;;;;4893254;29;20146;-68
2021/12/13 04:47:01;;;;;;;25.92;11.77;;;9.80;96.90;;;;;;4904028;29;20406;-68
2021/12/13 04:49:31;;;;;;;30.60;11.38;;;9.80;96.90;;;;;;4929973;29;20054;-68
2021/12/13 04:52:04;;;;;;;28.95;11.40;;;9.80;96.90;;;;;;4902580;29;20414;-68
2021/12/13 04:54:34;;;;;;;25.38;11.68;;;9.80;96.80;;;;;;4910277;29;20055;-68
2021/12/13 04:57:02;;;;;;;26.15;10.18;;;9.80;96.80;;;;;;4910915;29;20433;-68
2021/12/13 04:59:29;;;;;;;21.35;8.77;;;9.70;96.80;;;;;;4893865;29;20102;-68
2021/12/13 05:02:06;;;;;;;25.88;8.50;;;9.70;96.80;;;;;;4891883;29;20431;-68
2021/12/13 05:04:32;;;;;;;28.05;10.13;;;9.70;96.80;;;;;;4892878;29;20059;-68
2021/12/13 05:07:03;;;;;;;28.75;9.63;;;9.70;96.70;;;;;;4905331;29;20447;-68
2021/12/13 05:09:30;;;;;;;15.10;6.90;;;9.70;96.70;;;;;;4897936;29;20052;-68
2021/12/13 05:12:10;;;;;;;24.90;8.55;;;9.60;96.60;;;;;;4905191;29;20076;-68
2021/12/13 05:14:46;;;;;;;27.40;8.27;;;9.60;96.60;;;;;;4910798;29;20047;-68
2021/12/13 05:17:19;;;;;;;26.55;7.50;;;9.60;96.60;;;;;;4929569;29;20055;-69
2021/12/13 05:19:53;;;;;;;14.40;6.63;;;9.60;96.50;;;;;;4896695;29;20609;-68
2021/12/13 05:22:20;;;;;;;18.08;6.22;;;9.60;96.50;;;;;;4897440;29;20048;-68
2021/12/13 05:25:04;;;;;;;19.27;5.88;;;9.50;96.50;;;;;;4911671;29;20498;-68
2021/12/13 05:27:32;;;;;;;19.88;5.20;;;9.50;96.40;;;;;;4922795;29;20118;-68
2021/12/13 05:30:18;;;;;;;13.05;5.00;;;9.50;96.40;;;;;;4912413;29;20494;-68
2021/12/13 05:32:51;;;;;;;14.10;4.95;;;9.50;96.40;;;;;;4904063;29;20090;-68
2021/12/13 05:35:44;;;;;;;19.40;5.25;;;9.50;96.40;;;;;;4927452;29;20079;-68
2021/12/13 05:38:22;;;;;;;13.55;4.80;;;9.40;96.30;;;;;;4912615;29;20439;-68
2021/12/13 05:40:48;;;;;;;20.02;4.72;;;9.40;96.30;;;;;;4911267;29;20050;-68
2021/12/13 05:43:39;;;;;;;17.13;4.72;;;9.40;96.30;;;;;;4907321;29;20453;-68
2021/12/13 05:46:23;;;;;;;13.27;4.43;;;9.40;96.30;;;;;;4912556;29;20407;-68
2021/12/13 05:49:03;;;;;;;10.05;4.55;;;9.40;96.70;;;;;;4879900;29;20040;-68
2021/12/13 05:51:31;;;;;;;;;;;9.40;96.60;;;;;;4908772;29;20083;-68
2021/12/13 05:54:22;;;;;;;17.15;4.38;;;9.40;96.20;;;;;;4909490;29;19923;-68
2021/12/13 05:57:07;;;;;;;11.02;4.60;;;9.30;96.10;;;;;;4882510;29;20569;-68
2021/12/13 05:59:38;;;;;;;8.43;4.03;;;9.30;96.10;;;;;;4912256;29;20055;-68
2021/12/13 06:02:13;;;;;;;7.90;3.70;;;9.30;96.00;;;;;;4905248;29;20062;-68
2021/12/13 06:04:43;;;;;;;12.70;4.47;;;9.30;96.00;;;;;;4910663;29;20059;-68
2021/12/13 06:07:21;;;;;;;11.95;4.85;;;9.30;96.10;;;;;;4916168;29;20485;-68
2021/12/13 06:10:09;;;;;;;13.55;5.38;;;9.30;96.00;;;;;;4907014;29;20048;-68
2021/12/13 06:12:57;;;;;;;20.95;5.60;;;9.30;96.00;;;;;;4911699;29;20052;-68
2021/12/13 06:15:36;;;;;;;12.43;4.60;;;9.30;96.00;;;;;;4914112;29;20055;-68
2021/12/13 06:18:05;;;;;;;17.92;5.93;;;9.30;96.00;;;;;;4888618;29;20039;-68
2021/12/13 06:20:31;;;;;;;17.17;5.15;;;9.20;95.90;;;;;;4922268;29;20036;-67
2021/12/13 06:23:25;;;;;;;16.73;6.25;;;9.20;95.90;;;;;;4911329;29;20048;-68
2021/12/13 06:26:04;;;;;;;11.15;5.53;;;9.20;95.90;;;;;;4927295;29;20099;-68
2021/12/13 06:28:40;;;;;;;16.25;6.40;;;9.20;95.90;;;;;;4915211;29;20066;-68
2021/12/13 06:31:17;;;;;;;10.05;6.05;;;9.20;95.90;;;;;;4902827;29;20526;-68
2021/12/13 06:33:55;;;;;;;16.17;5.85;;;9.20;95.90;;;;;;4931413;29;20063;-68
2021/12/13 06:36:40;;;;;;;14.85;6.15;;;9.20;95.80;;;;;;4913984;29;20494;-68
2021/12/13 06:39:09;;;;;;;20.55;6.40;;;9.20;95.80;;;;;;4888391;29;20059;-68
2021/12/13 06:41:38;;;;;;;13.70;6.10;;;9.20;95.80;;;;;;4922001;29;20456;-68
2021/12/13 06:44:06;;;;;;;13.80;6.28;;;9.20;95.70;;;;;;4914231;29;20048;-68
2021/12/13 06:46:44;;;;;;;19.60;6.32;;;9.20;95.70;;;;;;4919061;29;20402;-68
2021/12/13 06:49:21;;;;;;;18.23;6.10;;;9.20;95.70;;;;;;4913662;29;20657;-68
2021/12/13 06:52:08;;;;;;;18.67;6.63;;;9.20;95.60;;;;;;4893643;29;20051;-68
2021/12/13 06:55:00;;;;;;;14.45;6.32;;;9.20;95.60;;;;;;4914953;29;20095;-68
2021/12/13 06:57:36;;;;;;;20.05;7.13;;;9.20;95.60;;;;;;4902924;29;20585;-68
2021/12/13 07:00:27;;;;;;;18.65;7.03;;;9.20;95.50;;;;;;4914732;29;20051;-67
2021/12/13 07:03:03;;;;;;;21.55;7.55;;;9.20;95.50;;;;;;4896949;29;20044;-68
2021/12/13 07:05:43;;;;;;;14.27;6.10;;;9.20;95.40;;;;;;4912773;29;20051;-68
2021/12/13 07:08:15;;;;;;;9.70;5.05;;;9.20;95.50;;;;;;4932567;29;20056;-68
2021/12/13 07:11:12;;;;;;;16.00;7.30;;;9.20;95.40;;;;;;4912917;29;20084;-68
2021/12/13 07:13:43;;;;;;;15.63;7.93;;;9.20;95.40;;;;;;4921380;29;20052;-68
2021/12/13 07:16:17;;;;;;;13.93;6.53;;;9.20;95.40;;;;;;4901542;29;20055;-68
2021/12/13 07:19:01;;;;;;;17.30;6.93;;;9.20;95.30;;;;;;4912890;29;20074;-68
2021/12/13 07:21:54;;;;;;;21.63;8.25;;;9.20;95.30;;;;;;4915034;29;20058;-68
2021/12/13 07:24:34;;;;;;;15.50;7.38;;;9.20;95.70;;;;;;4900662;29;20064;-68
2021/12/13 07:27:07;;;;;;;15.20;7.70;;;9.20;95.30;;;;;;4913192;29;20044;-68
2021/12/13 07:29:39;;;;;;;13.75;6.90;;;9.20;95.30;;;;;;4932023;29;20044;-67
2021/12/13 07:32:25;;;;;;;16.10;6.82;;;9.10;95.20;;;;;;4902565;29;20056;-68
2021/12/13 07:35:20;;;;;;;12.07;6.70;;;9.20;95.20;;;;;;4918535;29;20445;-68
2021/12/13 07:38:00;;;;;;;15.70;7.50;;;9.10;95.20;;;;;;4925004;29;20514;-68
2021/12/13 07:40:40;;;;;;;17.88;7.45;;;9.10;95.10;;;;;;4902168;29;20055;-68
2021/12/13 07:43:26;;;;;;;20.63;7.30;;;9.20;95.10;;;;;;4930418;29;20068;-68
2021/12/13 07:46:19;;;;;;;12.38;7.22;;;9.20;95.10;;;;;;4905138;29;20048;-68
2021/12/13 07:48:45;;;;;;;10.98;7.07;;;9.10;95.10;;;;;;4905680;29;20254;-68
2021/12/13 07:51:25;;;;;;;13.27;6.97;;;9.20;95.10;;;;;;4930013;29;20530;-68
2021/12/13 07:53:57;;;;;;;16.60;7.93;;;9.10;95.00;;;;;;4910661;29;20091;-68
2021/12/13 07:56:28;;;;;;;14.73;7.55;;;9.20;95.00;;;;;;4871756;29;20052;-68
2021/12/13 07:59:09;;;;;;;14.15;7.45;;;9.20;94.90;;;;;;4928208;29;20039;-68
2021/12/13 08:01:56;;;;;;;;;;;9.20;94.90;;;;;;4918756;29;20044;-68
2021/12/13 08:04:27;;;;;;;13.88;7.70;;;9.20;94.90;;;;;;4888719;29;19927;-68
2021/12/13 08:06:57;;;;;;;15.55;8.48;;;9.20;94.90;;;;;;4904608;29;20055;-68
2021/12/13 08:09:27;;;;;;;15.73;8.20;;;9.20;94.80;;;;;;4894858;29;20048;-68
2021/12/13 08:12:19;;;;;;;15.18;8.90;;;9.20;94.80;;;;;;4913740;29;20048;-68
2021/12/13 08:14:47;;;;;;;16.50;8.95;;;9.20;94.80;;;;;;4872294;29;20119;-68
2021/12/13 08:17:18;;;;;;;17.00;9.40;;;9.20;94.80;;;;;;4914443;29;20043;-68
2021/12/13 08:19:51;;;;;;;14.20;7.97;;;9.30;94.80;;;;;;4892611;29;20498;-68
2021/12/13 08:22:20;;;;;;;15.60;8.80;;;9.30;94.70;;;;;;4894733;29;20044;-68
2021/12/13 08:24:51;;;;;;;16.75;9.02;;;9.30;94.60;;;;;;4901739;29;20096;-68
2021/12/13 08:27:25;;;;;;;;;;;9.30;94.60;;;;;;4875311;29;20545;-68
2021/12/13 08:30:13;;;;;;;21.38;9.52;;;9.30;94.50;;;;;;4893706;29;19930;-68
2021/12/13 08:33:05;;;;;;;17.13;10.32;;;9.30;94.50;;;;;;4909477;29;20044;-68
2021/12/13 08:36:01;;;;;;;15.90;10.07;;;9.30;94.50;;;;;;4911237;29;20099;-68
2021/12/13 08:38:41;;;;;;;20.77;10.43;;;9.30;94.40;;;;;;4893552;29;20066;-68
2021/12/13 08:41:29;;;;;;;16.35;11.02;;;9.30;94.40;;;;;;4892291;29;20414;-68
2021/12/13 08:44:16;;;;;;;15.98;10.15;;;9.40;94.30;;;;;;4911102;29;20122;-68
2021/12/13 08:46:55;;;;;;;14.10;9.68;;;9.40;94.20;;;;;;4909725;29;20052;-68
2021/12/13 08:49:29;;;;;;;20.63;11.25;;;9.40;94.10;;;;;;4892913;29;20044;-68
2021/12/13 08:52:10;;;;;;;17.75;11.10;;;9.40;94.10;;;;;;4878012;29;20058;-68
2021/12/13 08:54:45;;;;;;;22.75;11.02;;;9.40;94.00;;;;;;4893152;29;20052;-68
2021/12/13 08:57:35;;;;;;;18.50;12.68;;;9.40;94.00;;;;;;4895662;29;20472;-68
2021/12/13 09:00:11;;;;;;;16.63;12.05;;;9.50;93.90;;;;;;4893482;29;20055;-68
2021/12/13 09:02:50;;;;;;;20.95;12.25;;;9.50;93.90;;;;;;4908006;29;20051;-68
2021/12/13 09:05:23;;;;;;;18.90;12.35;;;9.50;93.90;;;;;;4909666;29;20058;-68
2021/12/13 09:08:00;;;;;;;19.95;13.30;;;9.50;93.80;;;;;;4898345;29;20059;-68
2021/12/13 09:11:05;;;;;;;21.50;12.68;;;9.50;93.70;;;;;;4926100;29;20058;-68
2021/12/13 09:14:18;;;;;;;23.23;12.40;;;9.50;93.60;;;;;;4879818;29;20203;-68
2021/12/13 09:17:15;;;;;;;24.58;13.27;;;9.50;93.60;;;;;;4866885;29;20055;-68
2021/12/13 09:19:46;;;;;;;24.38;13.88;;;9.60;93.50;;;;;;4907429;29;20060;-68
2021/12/13 09:22:19;;;;;;;23.55;14.00;;;9.60;93.50;;;;;;4907953;29;20090;-68
2021/12/13 09:25:06;;;;;;;22.45;15.40;;;9.60;93.50;;;;;;4906069;29;20118;-68
2021/12/13 09:27:40;;;;;;;19.60;14.35;;;9.60;93.50;;;;;;4908525;29;20063;-68
2021/12/13 09:30:12;;;;;;;24.95;15.60;;;9.60;93.50;;;;;;4910004;29;20048;-68
2021/12/13 09:32:48;;;;;;;24.95;15.50;;;9.60;93.40;;;;;;4905943;29;20040;-68
2021/12/13 09:36:21;;;;;;;25.27;14.73;;;9.60;93.40;;;;;;4922273;29;20047;-68
2021/12/13 09:38:53;;;;;;;14.90;10.77;;;9.60;93.30;;;;;;4824761;29;20064;-69
2021/12/13 09:41:27;;;;;;;24.67;15.13;;;9.70;93.30;;;;;;4873290;29;20066;-68
2021/12/13 09:44:11;;;;;;;24.27;14.63;;;9.70;93.20;;;;;;4899096;29;20131;-68
2021/12/13 09:46:40;;;;;;;20.13;13.70;;;9.80;93.10;;;;;;4906314;29;20131;-68
2021/12/13 09:49:34;;;;;;;24.55;16.30;;;9.80;93.00;;;;;;4907380;29;20063;-68
2021/12/13 09:52:20;;;;;;;25.70;16.60;;;9.80;92.90;;;;;;4912733;29;20067;-68
2021/12/13 09:54:46;;;;;;;17.23;10.93;;;9.80;92.70;;;;;;4915119;29;20059;-68
2021/12/13 09:57:18;;;;;;;26.00;15.85;;;9.90;92.70;;;;;;4904287;29;20300;-68
2021/12/13 09:59:50;;;;;;;26.63;16.80;;;9.90;92.70;;;;;;4909840;29;20406;-68
2021/12/13 10:02:30;;;;;;;28.70;16.35;;;9.90;92.70;;;;;;4906253;29;20079;-68
2021/12/13 10:04:56;;;;;;;28.27;16.35;;;10.00;92.70;;;;;;4913119;29;20043;-68
2021/12/13 10:07:30;;;;;;;24.75;16.42;;;9.90;92.50;;;;;;4905454;29;20450;-68
2021/12/13 10:10:19;;;;;;;26.23;17.13;;;9.90;92.50;;;;;;4909391;29;20083;-68
2021/12/13 10:12:52;;;;;;;23.20;15.48;;;9.90;92.50;;;;;;4907499;29;20079;-68
2021/12/13 10:15:26;;;;;;;26.48;16.67;;;9.90;92.60;;;;;;4911703;29;20051;-68
2021/12/13 10:17:57;;;;;;;24.98;16.27;;;9.90;92.70;;;;;;4906110;29;20036;-69
2021/12/13 10:20:32;;;;;;;22.42;15.52;;;9.90;92.60;;;;;;4909851;29;20055;-68
2021/12/13 10:22:58;;;;;;;23.27;16.05;;;9.90;92.60;;;;;;4898885;29;20112;-68
2021/12/13 10:25:40;;;;;;;29.98;16.92;;;9.90;92.70;;;;;;4894194;29;20087;-68
2021/12/13 10:28:13;;;;;;;28.30;16.02;;;9.90;92.70;;;;;;4883812;29;20059;-68
2021/12/13 10:30:43;;;;;;;25.67;16.58;;;9.90;92.70;;;;;;4912477;29;20053;-68
2021/12/13 10:33:10;;;;;;;28.20;16.58;;;9.90;92.70;;;;;;4892954;29;20079;-68
2021/12/13 10:35:40;;;;;;;26.08;15.73;;;9.90;92.70;;;;;;4912575;29;20044;-68
2021/12/13 10:38:17;;;;;;;20.45;16.17;;;9.90;92.70;;;;;;4897028;29;20511;-68
2021/12/13 10:40:58;;;;;;;25.23;16.45;;;9.90;92.60;;;;;;4915086;29;20079;-68
2021/12/13 10:43:31;;;;;;;23.98;15.25;;;9.90;92.60;;;;;;4895216;29;20408;-68
2021/12/13 10:46:11;;;;;;;30.02;15.18;;;9.90;92.50;;;;;;4893182;29;20140;-68
2021/12/13 10:48:44;;;;;;;20.45;13.88;;;9.90;92.70;;;;;;4924557;29;20047;-68
2021/12/13 10:51:33;;;;;;;20.50;13.32;;;9.90;92.90;;;;;;4909351;29;21401;-68
2021/12/13 10:54:09;;;;;;;22.08;15.15;;;9.90;92.50;;;;;;4891318;29;20044;-68
2021/12/13 10:56:40;;;;;;;21.85;13.45;;;9.90;92.40;;;;;;4898871;29;20128;-68
2021/12/13 10:59:11;;;;;;;18.38;13.10;;;9.90;92.40;;;;;;4904152;29;20406;-68
2021/12/13 11:01:44;;;;;;;22.60;15.05;;;10.00;92.40;;;;;;4908067;29;20150;-68
2021/12/13 11:04:15;;;;;;;25.10;14.68;;;10.00;92.30;;;;;;4892704;29;20566;-68
2021/12/13 11:06:42;;;;;;;20.50;14.10;;;10.00;92.20;;;;;;4928216;29;20083;-68
2021/12/13 11:09:12;;;;;;;20.35;13.20;;;10.00;92.20;;;;;;4927614;29;20055;-69
2021/12/13 11:11:42;;;;;;;19.38;12.13;;;10.10;92.20;;;;;;4877534;29;20048;-68
2021/12/13 11:14:17;;;;;;;26.60;12.50;;;10.00;92.00;;;;;;4908692;29;20114;-68
2021/12/13 11:16:48;;;;;;;20.73;14.55;;;10.00;92.00;;;;;;4911049;29;20533;-68
2021/12/13 11:19:18;;;;;;;15.95;12.65;;;10.00;92.00;;;;;;4907460;29;20062;-68
2021/12/13 11:21:47;;;;;;;18.95;12.60;;;10.00;91.80;;;;;;4915928;29;20048;-68
2021/12/13 11:24:24;;;;;;;17.40;12.75;;;10.00;92.00;;;;;;4902193;29;20051;-68
2021/12/13 11:26:56;;;;;;;22.23;13.07;;;10.00;92.00;;;;;;4899054;29;20498;-69
2021/12/13 11:29:23;;;;;;;18.55;11.60;;;10.00;92.10;;;;;;4907342;29;20461;-68
2021/12/13 11:32:22;;;;;;;16.60;11.73;;;10.00;91.90;;;;;;4910503;29;20463;-69
2021/12/13 11:35:08;;;;;;;22.30;11.20;;;10.00;91.90;;;;;;4928980;29;20040;-68
2021/12/13 11:37:55;;;;;;;17.98;11.15;;;10.00;92.00;;;;;;4903305;29;20051;-68
2021/12/13 11:40:59;;;;;;;17.30;11.75;;;10.00;91.90;;;;;;4910261;29;20056;-68
2021/12/13 11:43:58;;;;;;;20.23;11.85;;;10.00;91.80;;;;;;4922483;29;20059;-68
2021/12/13 11:46:28;;;;;;;14.80;11.23;;;10.00;91.80;;;;;;4891138;29;20064;-68
2021/12/13 11:49:19;;;;;;;16.73;12.55;;;10.00;91.80;;;;;;4891835;29;20103;-68
2021/12/13 11:52:25;;;;;;;18.23;10.00;;;10.00;91.80;;;;;;4893765;29;20060;-68
2021/12/13 11:55:12;;;;;;;21.00;10.48;;;10.00;91.80;;;;;;4910801;29;20060;-69
2021/12/13 11:58:05;;;;;;;14.48;10.32;;;10.10;91.70;;;;;;4894927;29;20060;-68
2021/12/13 12:01:07;;;;;;;21.77;10.93;;;10.00;91.50;;;;;;4911744;29;20047;-68
2021/12/13 12:03:48;;;;;;;19.92;11.23;;;10.10;91.30;;;;;;4890172;29;20048;-68
2021/12/13 12:06:52;;;;;;;16.27;9.60;;;10.10;91.40;;;;;;4910285;29;20079;-68
2021/12/13 12:09:55;;;;;;;18.38;10.43;;;10.10;91.20;;;;;;4891944;29;20063;-68
2021/12/13 12:12:21;;;;;;;21.63;10.68;;;10.10;91.40;;;;;;4921977;29;20052;-68
2021/12/13 12:14:49;;;;;;;18.38;10.82;;;10.10;91.50;;;;;;4929333;29;20091;-69
2021/12/13 12:17:17;;;;;;;19.23;10.60;;;10.10;91.00;;;;;;4928138;29;20131;-69
2021/12/13 12:19:44;;;;;;;18.55;9.65;;;10.10;91.20;;;;;;4907445;29;20471;-69
2021/12/13 12:22:16;;;;;;;22.23;10.85;;;10.10;90.90;;;;;;4919877;29;20502;-68
2021/12/13 12:24:49;;;;;;;12.85;9.13;;;10.10;90.90;;;;;;4928742;29;20055;-69
2021/12/13 12:27:22;;;;;;;22.00;11.07;;;10.10;90.60;;;;;;4936435;29;20441;-69
2021/12/13 12:29:52;;;;;;;14.05;10.13;;;10.20;90.80;;;;;;4924102;29;20043;-69
2021/12/13 12:32:28;;;;;;;21.13;11.07;;;10.20;90.90;;;;;;4927542;29;20047;-68
2021/12/13 12:34:57;;;;;;;16.98;10.73;;;10.20;90.60;;;;;;4912434;29;20509;-69
2021/12/13 12:37:48;;;;;;;17.35;10.10;;;10.20;90.80;;;;;;4911701;29;20047;-69
2021/12/13 12:40:26;;;;;;;18.08;11.48;;;10.20;90.50;;;;;;4902169;29;20051;-69
2021/12/13 12:43:02;;;;;;;17.45;9.63;;;10.20;90.50;;;;;;4928913;29;20054;-68
2021/12/13 12:45:38;;;;;;;14.45;10.05;;;10.20;90.50;;;;;;4944728;29;20145;-69
2021/12/13 12:48:06;;;;;;;19.63;9.85;;;10.20;90.50;;;;;;4928418;29;20095;-69
2021/12/13 12:50:40;;;;;;;19.00;9.45;;;10.20;90.50;;;;;;4906679;29;20051;-68
2021/12/13 12:53:14;;;;;;;18.38;10.57;;;10.20;90.40;;;;;;4896702;29;20130;-68
2021/12/13 12:55:44;;;;;;;18.38;10.65;;;10.20;90.40;;;;;;4929204;29;20051;-68
2021/12/13 12:58:29;;;;;;;20.20;11.25;;;10.20;90.30;;;;;;4921053;29;20110;-69
2021/12/13 13:01:00;;;;;;;15.52;10.23;;;10.20;90.40;;;;;;4911365;29;20083;-68
2021/12/13 13:03:27;;;;;;;;;;;10.30;90.30;;;;;;4912406;29;20533;-69
2021/12/13 13:06:11;;;;;;;16.58;9.77;;;10.30;90.20;;;;;;4912591;29;20022;-68
2021/12/13 13:08:41;;;;;;;22.00;10.25;;;10.30;90.30;;;;;;4910952;29;20058;-68
2021/12/13 13:11:35;;;;;;;21.50;10.63;;;10.30;90.20;;;;;;4928539;29;20044;-69
2021/12/13 13:14:03;;;;;;;17.98;9.65;;;10.30;90.20;;;;;;4928495;29;20054;-68
2021/12/13 13:16:35;;;;;;;22.50;10.35;;;10.30;90.30;;;;;;4911915;29;20051;-68
2021/12/13 13:19:03;;;;;;;13.48;8.82;;;10.30;90.70;;;;;;4912572;29;20051;-69
2021/12/13 13:21:29;;;;;;;20.52;12.10;;;10.30;91.20;;;;;;4919428;29;20050;-69
2021/12/13 13:23:59;;;;;;;21.65;11.90;;;10.20;91.40;;;;;;4912159;29;20047;-69
2021/12/13 13:26:31;;;;;;;28.35;11.88;;;10.20;91.90;;;;;;4908779;29;20152;-69
2021/12/13 13:29:06;;;;;;;22.58;11.85;;;10.10;92.10;;;;;;4896428;29;20179;-69
2021/12/13 13:31:37;;;;;;;21.08;11.85;;;10.10;92.30;;;;;;4910464;29;20630;-69
2021/12/13 13:34:10;;;;;;;21.73;12.82;;;10.00;92.60;;;;;;4898863;29;20047;-69